createdAt,value
2022-12-23T00:01:00.376Z,12.40
2022-12-23T00:02:32.344Z,9.80
2022-12-23T00:04:04.461Z,16.80
2022-12-23T00:05:38.756Z,13.70
2022-12-23T00:07:10.533Z,8.60
2022-12-23T00:08:43.238Z,11.70
2022-12-23T00:10:14.985Z,13.90
2022-12-23T00:12:05.299Z,13.40
2022-12-23T00:13:55.778Z,15.60
2022-12-23T00:15:27.494Z,15.80
2022-12-23T00:16:59.259Z,14.20
2022-12-23T00:18:31.228Z,14.60
2022-12-23T00:20:05.646Z,14.70
2022-12-23T00:21:37.520Z,11.70
2022-12-23T00:23:09.176Z,13.30
2022-12-23T00:24:40.925Z,13.50
2022-12-23T00:26:25.662Z,12.00
2022-12-23T00:28:03.161Z,12.90
2022-12-23T00:29:34.852Z,14.90
2022-12-23T00:31:07.892Z,13.30
2022-12-23T00:32:39.579Z,15.50
2022-12-23T00:34:12.684Z,12.10
2022-12-23T00:35:45.866Z,14.70
2022-12-23T00:37:17.627Z,17.00
2022-12-23T00:39:08.328Z,13.60
2022-12-23T00:40:58.505Z,16.00
2022-12-23T00:42:48.590Z,15.10
2022-12-23T00:44:20.777Z,14.10
2022-12-23T00:45:52.743Z,13.00
2022-12-23T00:47:43.293Z,16.20
2022-12-23T00:49:36.693Z,12.40
2022-12-23T00:51:08.472Z,13.00
2022-12-23T00:52:40.218Z,11.80
2022-12-23T00:56:09.030Z,16.00
2022-12-23T00:57:40.152Z,15.00
2022-12-23T00:59:11.309Z,15.50
2022-12-23T01:01:02.973Z,13.30
2022-12-23T01:02:53.046Z,16.90
2022-12-23T01:04:43.318Z,12.30
2022-12-23T01:06:15.436Z,14.40
2022-12-23T01:07:46.681Z,15.60
2022-12-23T01:09:17.814Z,15.40
2022-12-23T01:10:48.978Z,15.40
2022-12-23T01:12:20.222Z,15.30
2022-12-23T01:13:51.423Z,13.20
2022-12-23T01:15:23.443Z,14.40
2022-12-23T01:16:54.584Z,17.50
2022-12-23T01:18:25.716Z,14.10
2022-12-23T01:19:56.876Z,13.00
2022-12-23T01:21:27.952Z,14.70
2022-12-23T01:22:59.175Z,14.70
2022-12-23T01:24:32.085Z,11.10
2022-12-23T01:26:06.447Z,13.20
2022-12-23T01:27:37.626Z,12.00
2022-12-23T01:29:08.821Z,13.40
2022-12-23T01:30:40.026Z,11.50
2022-12-23T01:32:11.287Z,13.40
2022-12-23T01:33:42.496Z,11.80
2022-12-23T01:35:13.801Z,14.20
2022-12-23T01:36:44.877Z,19.00
2022-12-23T01:38:16.435Z,12.20
2022-12-23T01:39:47.594Z,13.40
2022-12-23T01:41:45.778Z,15.70
2022-12-23T01:43:19.559Z,12.40
2022-12-23T01:44:54.960Z,12.20
2022-12-23T01:46:26.112Z,14.80
2022-12-23T01:48:00.125Z,12.40
2022-12-23T01:49:31.329Z,13.60
2022-12-23T01:51:11.138Z,13.90
2022-12-23T01:53:16.764Z,14.00
2022-12-23T01:54:48.318Z,14.00
2022-12-23T01:56:23.493Z,14.80
2022-12-23T01:58:03.982Z,11.70
2022-12-23T01:59:54.172Z,15.30
2022-12-23T02:01:45.046Z,13.40
2022-12-23T02:03:35.101Z,12.00
2022-12-23T02:05:07.761Z,9.80
2022-12-23T02:07:04.026Z,13.90
2022-12-23T02:08:53.911Z,14.30
2022-12-23T02:10:50.645Z,13.90
2022-12-23T02:13:06.065Z,14.40
2022-12-23T02:15:46.159Z,14.00
2022-12-23T02:18:04.196Z,10.30
2022-12-23T02:19:55.326Z,14.80
2022-12-23T02:21:47.408Z,12.80
2022-12-23T02:24:02.348Z,14.80
2022-12-23T02:25:58.853Z,17.70
2022-12-23T02:27:46.570Z,15.00
2022-12-23T02:29:59.087Z,10.90
2022-12-23T02:31:44.975Z,16.80
2022-12-23T02:34:10.590Z,13.60
2022-12-23T02:36:13.886Z,16.10
2022-12-23T02:38:27.021Z,18.00
2022-12-23T02:40:15.119Z,10.80
2022-12-23T02:42:08.940Z,15.40
2022-12-23T02:43:49.804Z,14.40
2022-12-23T02:45:43.907Z,14.50
2022-12-23T02:47:28.438Z,13.10
2022-12-23T02:49:17.429Z,16.00
2022-12-23T02:50:52.873Z,18.30
2022-12-23T02:52:31.670Z,15.50
2022-12-23T02:54:10.894Z,15.50
2022-12-23T02:55:47.990Z,14.00
2022-12-23T02:57:26.650Z,13.50
2022-12-23T02:59:15.157Z,13.70
2022-12-23T03:00:49.173Z,17.30
2022-12-23T03:02:20.581Z,16.90
2022-12-23T03:03:52.162Z,13.80
2022-12-23T03:05:34.290Z,16.10
2022-12-23T03:07:08.128Z,12.30
2022-12-23T03:08:45.071Z,15.10
2022-12-23T03:10:34.870Z,13.20
2022-12-23T03:12:39.795Z,11.80
2022-12-23T03:15:04.581Z,13.30
2022-12-23T03:17:02.478Z,12.50
2022-12-23T03:18:56.715Z,12.10
2022-12-23T03:21:26.119Z,13.70
2022-12-23T03:23:26.333Z,12.50
2022-12-23T03:25:29.951Z,13.30
2022-12-23T03:27:39.169Z,15.70
2022-12-23T03:29:20.219Z,12.20
2022-12-23T03:30:59.506Z,12.00
2022-12-23T03:33:04.041Z,12.10
2022-12-23T03:34:41.275Z,13.20
2022-12-23T03:36:37.645Z,13.00
2022-12-23T03:38:12.454Z,14.00
2022-12-23T03:39:54.535Z,13.50
2022-12-23T03:41:37.165Z,12.90
2022-12-23T03:43:25.282Z,13.10
2022-12-23T03:47:16.306Z,14.10
2022-12-23T03:48:58.992Z,15.10
2022-12-23T03:50:32.201Z,16.00
2022-12-23T03:52:20.772Z,13.30
2022-12-23T03:54:14.667Z,13.70
2022-12-23T03:55:56.751Z,15.50
2022-12-23T03:57:42.548Z,13.90
2022-12-23T03:59:23.554Z,17.30
2022-12-23T04:01:04.720Z,14.60
2022-12-23T04:02:53.384Z,14.80
2022-12-23T04:04:38.107Z,15.60
2022-12-23T04:06:15.298Z,18.20
2022-12-23T04:08:01.022Z,16.30
2022-12-23T04:09:34.354Z,15.10
2022-12-23T04:11:06.095Z,15.90
2022-12-23T04:12:39.470Z,16.00
2022-12-23T04:14:16.787Z,21.30
2022-12-23T04:15:47.998Z,17.50
2022-12-23T04:17:19.991Z,16.70
2022-12-23T04:18:51.077Z,15.90
2022-12-23T04:20:23.055Z,19.60
2022-12-23T04:21:57.144Z,18.50
2022-12-23T04:23:28.630Z,18.00
2022-12-23T04:24:59.645Z,16.50
2022-12-23T04:26:30.639Z,19.30
2022-12-23T04:28:01.864Z,20.60
2022-12-23T04:29:33.093Z,16.70
2022-12-23T04:31:04.268Z,15.90
2022-12-23T04:32:35.346Z,16.40
2022-12-23T04:34:06.360Z,16.20
2022-12-23T04:35:37.995Z,19.30
2022-12-23T04:37:10.267Z,15.40
2022-12-23T04:38:41.333Z,20.80
2022-12-23T04:40:12.990Z,13.30
2022-12-23T04:41:44.006Z,18.40
2022-12-23T04:43:15.056Z,16.40
2022-12-23T04:44:46.061Z,14.90
2022-12-23T04:46:17.269Z,16.30
2022-12-23T04:47:48.337Z,15.50
2022-12-23T04:49:19.382Z,16.30
2022-12-23T04:50:50.825Z,16.80
2022-12-23T04:52:22.960Z,15.60
2022-12-23T04:53:54.083Z,15.40
2022-12-23T04:55:25.142Z,14.90
2022-12-23T04:56:56.239Z,14.30
2022-12-23T04:58:27.349Z,15.20
2022-12-23T04:59:58.388Z,17.10
2022-12-23T05:01:29.574Z,16.40
2022-12-23T05:03:00.856Z,16.20
2022-12-23T05:04:32.713Z,17.20
2022-12-23T05:06:05.628Z,15.40
2022-12-23T05:07:36.691Z,17.90
2022-12-23T05:09:08.414Z,12.60
2022-12-23T05:10:39.528Z,15.90
2022-12-23T05:12:10.548Z,16.60
2022-12-23T05:13:41.588Z,16.20
2022-12-23T05:15:12.605Z,15.10
2022-12-23T05:16:43.847Z,15.40
2022-12-23T05:18:15.983Z,15.60
2022-12-23T05:19:47.004Z,15.40
2022-12-23T05:21:18.155Z,13.90
2022-12-23T05:22:49.250Z,18.00
2022-12-23T05:24:20.277Z,15.00
2022-12-23T05:25:53.578Z,14.00
2022-12-23T05:27:24.616Z,16.00
2022-12-23T05:28:55.813Z,15.50
2022-12-23T05:30:26.939Z,16.70
2022-12-23T05:31:58.066Z,13.10
2022-12-23T05:33:29.717Z,15.50
2022-12-23T05:35:00.855Z,18.90
2022-12-23T05:36:32.012Z,16.60
2022-12-23T05:38:03.527Z,13.50
2022-12-23T05:39:34.651Z,14.40
2022-12-23T05:41:06.160Z,12.80
2022-12-23T05:42:37.184Z,15.30
2022-12-23T05:44:08.256Z,17.10
2022-12-23T05:45:39.637Z,13.30
2022-12-23T05:47:10.934Z,12.90
2022-12-23T05:48:42.005Z,13.20
2022-12-23T05:50:13.140Z,12.60
2022-12-23T05:51:44.277Z,12.50
2022-12-23T05:53:15.325Z,13.30
2022-12-23T05:54:46.510Z,11.80
2022-12-23T05:56:17.607Z,14.20
2022-12-23T05:57:48.660Z,11.60
2022-12-23T05:59:19.695Z,12.10
2022-12-23T06:00:50.776Z,12.80
2022-12-23T06:02:22.192Z,12.20
2022-12-23T06:03:53.567Z,12.50
2022-12-23T06:05:24.832Z,15.80
2022-12-23T06:06:55.920Z,12.20
2022-12-23T06:08:26.919Z,12.70
2022-12-23T06:09:58.048Z,13.70
2022-12-23T06:11:29.225Z,12.70
2022-12-23T06:13:00.307Z,12.40
2022-12-23T06:14:31.410Z,11.70
2022-12-23T06:16:02.770Z,13.20
2022-12-23T06:17:33.929Z,13.40
2022-12-23T06:19:05.003Z,11.30
2022-12-23T06:20:36.142Z,13.50
2022-12-23T06:22:07.280Z,14.10
2022-12-23T06:23:38.380Z,14.00
2022-12-23T06:25:09.577Z,14.00
2022-12-23T06:26:41.970Z,14.60
2022-12-23T06:28:13.101Z,16.20
2022-12-23T06:29:44.452Z,14.20
2022-12-23T06:31:15.918Z,14.80
2022-12-23T06:32:49.953Z,17.20
2022-12-23T06:34:21.076Z,15.10
2022-12-23T06:35:52.191Z,15.10
2022-12-23T06:37:23.208Z,14.50
2022-12-23T06:38:54.207Z,16.60
2022-12-23T06:40:25.305Z,15.90
2022-12-23T06:41:56.324Z,16.10
2022-12-23T06:43:27.465Z,15.00
2022-12-23T06:44:58.471Z,14.80
2022-12-23T06:46:29.693Z,14.30
2022-12-23T06:48:00.863Z,16.40
2022-12-23T06:49:32.002Z,14.70
2022-12-23T06:51:03.288Z,17.00
2022-12-23T06:52:34.298Z,13.30
2022-12-23T06:54:05.387Z,14.50
2022-12-23T06:55:36.517Z,14.20
2022-12-23T06:57:07.557Z,12.60
2022-12-23T06:58:38.867Z,12.70
2022-12-23T07:00:11.060Z,12.20
2022-12-23T07:01:42.214Z,13.90
2022-12-23T07:03:13.607Z,11.30
2022-12-23T07:04:44.763Z,13.00
2022-12-23T07:06:15.871Z,14.50
2022-12-23T07:07:46.977Z,12.90
2022-12-23T07:09:18.034Z,15.00
2022-12-23T07:10:49.147Z,14.00
2022-12-23T07:12:20.286Z,14.10
2022-12-23T07:13:51.309Z,15.50
2022-12-23T07:15:22.362Z,14.40
2022-12-23T07:16:53.577Z,14.90
2022-12-23T07:18:25.553Z,13.40
2022-12-23T07:19:56.686Z,16.10
2022-12-23T07:21:29.792Z,14.30
2022-12-23T07:23:01.020Z,16.00
2022-12-23T07:24:32.159Z,15.80
2022-12-23T07:26:03.376Z,17.60
2022-12-23T07:27:34.907Z,19.10
2022-12-23T07:29:06.009Z,16.10
2022-12-23T07:30:37.016Z,16.50
2022-12-23T07:32:08.296Z,17.20
2022-12-23T07:33:39.575Z,17.60
2022-12-23T07:35:10.611Z,17.40
2022-12-23T07:36:41.771Z,16.80
2022-12-23T07:38:13.006Z,18.00
2022-12-23T07:39:44.072Z,18.20
2022-12-23T07:41:15.119Z,20.40
2022-12-23T07:42:49.680Z,18.00
2022-12-23T07:44:20.794Z,19.60
2022-12-23T07:45:59.197Z,18.70
2022-12-23T07:47:31.490Z,17.40
2022-12-23T07:49:02.779Z,20.30
2022-12-23T07:50:34.079Z,17.90
2022-12-23T07:52:05.133Z,17.00
2022-12-23T07:53:36.274Z,21.00
2022-12-23T07:55:08.008Z,21.80
2022-12-23T07:56:42.048Z,20.20
2022-12-23T07:58:13.144Z,22.10
2022-12-23T07:59:44.223Z,20.30
2022-12-23T08:01:16.224Z,22.60
2022-12-23T08:02:48.177Z,22.60
2022-12-23T08:04:21.648Z,22.20
2022-12-23T08:06:08.778Z,20.40
2022-12-23T08:07:40.417Z,20.50
2022-12-23T08:09:11.481Z,23.40
2022-12-23T08:10:48.031Z,18.70
2022-12-23T08:12:19.843Z,19.60
2022-12-23T08:13:52.160Z,19.10
2022-12-23T08:15:23.169Z,19.50
2022-12-23T08:16:54.276Z,21.80
2022-12-23T08:18:28.658Z,21.50
2022-12-23T08:19:59.762Z,23.30
2022-12-23T08:21:30.806Z,21.80
2022-12-23T08:23:01.841Z,24.00
2022-12-23T08:24:32.881Z,24.00
2022-12-23T08:26:18.969Z,24.10
2022-12-23T08:27:53.457Z,23.10
2022-12-23T08:29:24.579Z,22.50
2022-12-23T08:31:23.359Z,21.40
2022-12-23T08:32:57.290Z,26.20
2022-12-23T08:34:28.382Z,23.00
2022-12-23T08:35:59.487Z,20.30
2022-12-23T08:37:30.578Z,21.30
2022-12-23T08:39:07.211Z,20.70
2022-12-23T08:40:41.174Z,24.60
2022-12-23T08:42:12.250Z,27.30
2022-12-23T08:43:44.470Z,28.10
2022-12-23T08:45:18.207Z,26.50
2022-12-23T08:46:49.284Z,25.20
2022-12-23T08:48:20.464Z,24.70
2022-12-23T08:49:51.707Z,29.80
2022-12-23T08:51:25.830Z,26.10
2022-12-23T08:52:56.941Z,23.20
2022-12-23T08:54:28.791Z,24.80
2022-12-23T08:56:13.345Z,27.70
2022-12-23T08:57:44.379Z,21.10
2022-12-23T08:59:19.681Z,24.70
2022-12-23T09:00:51.353Z,24.00
2022-12-23T09:02:22.524Z,27.80
2022-12-23T09:03:54.018Z,22.10
2022-12-23T09:05:25.138Z,22.90
2022-12-23T09:06:56.313Z,27.00
2022-12-23T09:08:27.312Z,24.40
2022-12-23T09:09:58.406Z,23.60
2022-12-23T09:11:30.126Z,22.20
2022-12-23T09:13:01.163Z,29.30
2022-12-23T09:14:32.204Z,28.30
2022-12-23T09:16:04.753Z,21.40
2022-12-23T09:17:36.064Z,20.90
2022-12-23T09:19:07.507Z,19.80
2022-12-23T09:20:38.649Z,26.80
2022-12-23T09:22:09.805Z,18.00
2022-12-23T09:23:41.270Z,16.80
2022-12-23T09:25:13.522Z,20.50
2022-12-23T09:26:44.533Z,22.30
2022-12-23T09:28:15.760Z,22.20
2022-12-23T09:29:46.877Z,21.20
2022-12-23T09:31:21.159Z,20.50
2022-12-23T09:32:52.308Z,19.40
2022-12-23T09:34:26.306Z,21.90
2022-12-23T09:36:01.887Z,22.40
2022-12-23T09:37:33.311Z,20.50
2022-12-23T09:39:07.060Z,19.80
2022-12-23T09:40:40.492Z,20.10
2022-12-23T09:43:13.555Z,17.40
2022-12-23T09:45:10.728Z,19.70
2022-12-23T09:46:54.293Z,19.20
2022-12-23T09:48:35.284Z,17.00
2022-12-23T09:50:28.785Z,17.90
2022-12-23T09:52:06.056Z,19.20
2022-12-23T09:54:16.902Z,18.30
2022-12-23T09:55:55.902Z,20.00
2022-12-23T09:57:41.592Z,16.80
2022-12-23T09:59:51.543Z,16.60
2022-12-23T10:01:44.587Z,17.80
2022-12-23T10:03:28.274Z,16.30
2022-12-23T10:05:08.357Z,18.60
2022-12-23T10:06:40.805Z,16.50
2022-12-23T10:08:28.489Z,15.00
2022-12-23T10:10:16.311Z,18.20
2022-12-23T10:11:52.661Z,20.70
2022-12-23T10:13:28.870Z,18.70
2022-12-23T10:15:04.108Z,15.50
2022-12-23T10:16:43.896Z,21.70
2022-12-23T10:18:25.990Z,16.60
2022-12-23T10:20:03.674Z,17.20
2022-12-23T10:21:47.883Z,18.90
2022-12-23T10:23:36.632Z,16.20
2022-12-23T10:25:45.674Z,17.20
2022-12-23T10:27:27.157Z,19.50
2022-12-23T10:29:21.134Z,15.20
2022-12-23T10:33:08.788Z,18.80
2022-12-23T10:35:00.632Z,18.90
2022-12-23T10:36:46.774Z,17.50
2022-12-23T10:38:37.351Z,18.80
2022-12-23T10:40:26.542Z,17.40
2022-12-23T10:42:12.885Z,16.90
2022-12-23T10:44:22.299Z,15.60
2022-12-23T10:46:27.852Z,17.90
2022-12-23T10:48:26.708Z,17.20
2022-12-23T10:50:49.257Z,15.70
2022-12-23T10:52:26.816Z,16.40
2022-12-23T10:54:27.570Z,18.30
2022-12-23T10:55:59.927Z,16.00
2022-12-23T10:57:32.036Z,16.60
2022-12-23T10:59:06.490Z,14.80
2022-12-23T11:00:42.949Z,18.20
2022-12-23T11:02:14.321Z,14.40
2022-12-23T11:03:53.738Z,18.20
2022-12-23T11:05:28.778Z,15.30
2022-12-23T11:07:41.655Z,14.90
2022-12-23T11:08:55.838Z,14.40
2022-12-23T11:10:32.356Z,14.30
2022-12-23T11:12:07.856Z,17.50
2022-12-23T11:13:40.690Z,14.60
2022-12-23T11:15:28.788Z,14.40
2022-12-23T11:17:00.099Z,12.30
2022-12-23T11:18:31.071Z,13.50
2022-12-23T11:20:20.435Z,15.20
2022-12-23T11:22:00.254Z,14.10
2022-12-23T11:23:35.750Z,12.80
2022-12-23T11:25:35.900Z,14.70
2022-12-23T11:27:15.329Z,12.90
2022-12-23T11:28:56.264Z,13.80
2022-12-23T11:30:30.399Z,11.50
2022-12-23T11:32:14.319Z,17.50
2022-12-23T11:33:59.155Z,12.20
2022-12-23T11:35:34.920Z,12.70
2022-12-23T11:37:07.668Z,16.30
2022-12-23T11:38:56.715Z,13.40
2022-12-23T11:40:36.867Z,15.10
2022-12-23T11:42:26.048Z,13.40
2022-12-23T11:44:21.948Z,14.20
2022-12-23T11:46:27.231Z,13.60
2022-12-23T11:47:58.351Z,13.50
2022-12-23T11:49:33.278Z,12.80
2022-12-23T11:51:04.487Z,12.40
2022-12-23T11:52:35.516Z,11.80
2022-12-23T11:54:17.358Z,15.80
2022-12-23T11:56:12.819Z,15.70
2022-12-23T11:57:48.005Z,13.90
2022-12-23T11:59:38.913Z,14.20
2022-12-23T12:01:19.558Z,15.60
2022-12-23T12:02:57.933Z,14.20
2022-12-23T12:04:34.819Z,12.00
2022-12-23T12:06:06.892Z,13.90
2022-12-23T12:07:43.141Z,11.90
2022-12-23T12:09:15.977Z,14.10
2022-12-23T12:10:53.060Z,11.70
2022-12-23T12:12:25.645Z,11.10
2022-12-23T12:14:04.278Z,14.90
2022-12-23T12:16:00.794Z,12.80
2022-12-23T12:17:46.643Z,12.10
2022-12-23T12:19:29.529Z,11.90
2022-12-23T12:21:08.862Z,13.10
2022-12-23T12:22:53.996Z,11.70
2022-12-23T12:24:30.987Z,12.50
2022-12-23T12:26:32.020Z,13.70
2022-12-23T12:29:28.844Z,11.40
2022-12-23T12:31:27.625Z,12.70
2022-12-23T12:33:06.182Z,12.70
2022-12-23T12:35:00.876Z,11.90
2022-12-23T12:36:50.783Z,11.10
2022-12-23T12:38:35.279Z,13.90
2022-12-23T12:40:31.799Z,13.20
2022-12-23T12:42:22.892Z,11.10
2022-12-23T12:44:15.823Z,13.30
2022-12-23T12:46:05.017Z,11.20
2022-12-23T12:47:58.469Z,11.90
2022-12-23T12:49:56.725Z,10.80
2022-12-23T12:52:06.662Z,10.00
2022-12-23T12:54:06.168Z,11.70
2022-12-23T12:55:46.300Z,12.20
2022-12-23T12:57:23.972Z,10.00
2022-12-23T12:58:55.925Z,9.70
2022-12-23T13:00:27.978Z,10.80
2022-12-23T13:02:11.891Z,10.90
2022-12-23T13:04:04.805Z,10.40
2022-12-23T13:06:07.706Z,12.10
2022-12-23T13:07:39.485Z,11.50
2022-12-23T13:10:03.761Z,11.20
2022-12-23T13:11:56.392Z,14.90
2022-12-23T13:14:06.163Z,14.20
2022-12-23T13:15:46.989Z,13.80
2022-12-23T13:17:35.089Z,15.60
2022-12-23T13:19:22.066Z,11.40
2022-12-23T13:21:15.929Z,11.40
2022-12-23T13:23:06.240Z,13.80
2022-12-23T13:24:53.059Z,13.40
2022-12-23T13:26:49.849Z,16.60
2022-12-23T13:28:43.592Z,14.70
2022-12-23T13:30:20.269Z,14.40
2022-12-23T13:32:25.740Z,12.10
2022-12-23T13:34:35.867Z,14.10
2022-12-23T13:37:13.306Z,15.20
2022-12-23T13:39:20.847Z,14.60
2022-12-23T13:41:29.118Z,15.40
2022-12-23T13:43:22.615Z,13.70
2022-12-23T13:44:58.028Z,16.20
2022-12-23T13:46:57.859Z,13.40
2022-12-23T13:48:59.650Z,12.70
2022-12-23T13:51:07.899Z,13.30
2022-12-23T13:53:14.663Z,13.80
2022-12-23T13:55:36.673Z,13.30
2022-12-23T13:57:25.117Z,12.40
2022-12-23T13:58:58.573Z,13.20
2022-12-23T14:00:35.250Z,11.40
2022-12-23T14:02:36.000Z,13.00
2022-12-23T14:04:33.045Z,11.40
2022-12-23T14:06:23.565Z,10.00
2022-12-23T14:07:58.628Z,12.20
2022-12-23T14:09:38.288Z,11.50
2022-12-23T14:11:22.095Z,11.80
2022-12-23T14:13:03.724Z,10.00
2022-12-23T14:14:46.614Z,8.70
2022-12-23T14:16:21.664Z,12.10
2022-12-23T14:18:08.646Z,10.20
2022-12-23T14:20:27.892Z,10.80
2022-12-23T14:22:33.507Z,9.30
2022-12-23T14:24:48.962Z,10.30
2022-12-23T14:27:02.313Z,8.00
2022-12-23T14:29:34.830Z,10.10
2022-12-23T14:31:35.784Z,8.20
2022-12-23T14:33:34.532Z,10.30
2022-12-23T14:35:35.425Z,11.20
2022-12-23T14:37:24.202Z,10.20
2022-12-23T14:39:11.168Z,9.40
2022-12-23T14:40:43.009Z,9.00
2022-12-23T14:42:43.678Z,10.70
2022-12-23T14:44:37.289Z,9.90
2022-12-23T14:46:34.351Z,8.40
2022-12-23T14:48:34.589Z,10.50
2022-12-23T14:50:54.450Z,8.60
2022-12-23T14:52:39.295Z,10.80
2022-12-23T14:54:17.827Z,8.10
2022-12-23T14:56:09.997Z,9.20
2022-12-23T14:57:43.322Z,10.90
2022-12-23T14:59:38.902Z,10.50
2022-12-23T15:01:18.458Z,10.20
2022-12-23T15:02:58.234Z,9.10
2022-12-23T15:05:13.757Z,10.60
2022-12-23T15:07:03.235Z,9.20
2022-12-23T15:08:43.628Z,10.40
2022-12-23T15:10:23.210Z,8.20
2022-12-23T15:12:00.262Z,8.80
2022-12-23T15:13:34.747Z,11.30
2022-12-23T15:15:21.592Z,13.00
2022-12-23T15:16:53.362Z,10.80
2022-12-23T15:18:25.631Z,11.30
2022-12-23T15:20:09.902Z,12.00
2022-12-23T15:21:43.181Z,9.90
2022-12-23T15:23:17.624Z,11.40
2022-12-23T15:24:49.557Z,10.40
2022-12-23T15:26:27.596Z,9.90
2022-12-23T15:28:03.416Z,11.30
2022-12-23T15:49:28.415Z,10.80
2022-12-23T15:53:37.180Z,8.40
2022-12-23T15:55:21.490Z,7.60
2022-12-23T15:56:54.615Z,8.20
2022-12-23T15:58:29.574Z,7.80
2022-12-23T16:00:02.072Z,7.40
2022-12-23T16:01:44.376Z,6.00
2022-12-23T16:03:38.391Z,6.10
2022-12-23T16:05:10.294Z,6.70
2022-12-23T16:06:50.545Z,9.30
2022-12-23T16:08:30.263Z,6.30
2022-12-23T16:10:15.437Z,8.00
2022-12-23T16:12:25.912Z,11.30
2022-12-23T16:14:24.670Z,6.70
2022-12-23T16:16:34.526Z,7.30
2022-12-23T16:18:24.368Z,6.30
2022-12-23T16:20:26.334Z,7.90
2022-12-23T16:21:58.158Z,10.40
2022-12-23T16:23:34.837Z,10.30
2022-12-23T16:25:28.115Z,9.80
2022-12-23T16:27:00.057Z,9.00
2022-12-23T16:28:51.495Z,8.40
2022-12-23T16:30:31.618Z,10.50
2022-12-23T16:32:03.512Z,7.60
2022-12-23T16:33:41.827Z,8.40
2022-12-23T16:35:27.905Z,8.70
2022-12-23T16:36:59.716Z,8.20
2022-12-23T16:38:31.456Z,10.70
2022-12-23T16:40:15.272Z,12.10
2022-12-23T16:41:48.176Z,9.90
2022-12-23T16:43:23.431Z,10.30
2022-12-23T16:44:55.167Z,11.00
2022-12-23T16:46:28.604Z,8.90
2022-12-23T16:48:02.978Z,9.60
2022-12-23T16:49:37.520Z,10.30
2022-12-23T16:51:16.932Z,10.00
2022-12-23T16:52:48.682Z,13.10
2022-12-23T16:54:20.875Z,9.90
2022-12-23T16:55:58.526Z,11.10
2022-12-23T16:57:33.077Z,10.50
2022-12-23T16:59:05.711Z,12.80
2022-12-23T17:00:42.713Z,8.40
2022-12-23T17:02:22.488Z,13.00
2022-12-23T17:03:55.974Z,10.90
2022-12-23T17:05:27.921Z,13.60
2022-12-23T17:06:59.667Z,10.90
2022-12-23T17:08:31.515Z,13.30
2022-12-23T17:10:03.905Z,11.40
2022-12-23T17:11:45.111Z,12.40
2022-12-23T17:13:19.005Z,16.50
2022-12-23T17:14:50.799Z,15.00
2022-12-23T17:16:24.512Z,12.90
2022-12-23T17:17:56.830Z,13.40
2022-12-23T17:19:29.593Z,17.30
2022-12-23T17:21:01.694Z,15.20
2022-12-23T17:22:35.684Z,14.40
2022-12-23T17:24:13.175Z,15.70
2022-12-23T17:25:44.996Z,17.80
2022-12-23T17:27:20.869Z,14.70
2022-12-23T17:28:52.650Z,20.20
2022-12-23T17:30:25.512Z,19.60
2022-12-23T17:31:57.367Z,16.00
2022-12-23T17:33:32.334Z,16.30
2022-12-23T17:35:04.413Z,15.20
2022-12-23T17:36:36.261Z,13.80
2022-12-23T17:38:17.996Z,13.60
2022-12-23T17:39:49.783Z,9.80
2022-12-23T17:41:32.189Z,12.30
2022-12-23T17:43:03.954Z,12.70
2022-12-23T17:44:35.645Z,12.80
2022-12-23T17:46:14.442Z,10.70
2022-12-23T17:47:46.312Z,10.00
2022-12-23T17:49:18.126Z,10.50
2022-12-23T17:50:50.022Z,10.20
2022-12-23T17:52:24.187Z,8.20
2022-12-23T17:53:58.176Z,10.90
2022-12-23T17:55:30.315Z,8.80
2022-12-23T17:57:02.012Z,10.30
2022-12-23T17:58:33.694Z,8.60
2022-12-23T18:00:06.499Z,10.60
2022-12-23T18:01:48.018Z,8.10
2022-12-23T18:03:23.820Z,8.70
2022-12-23T18:04:55.522Z,9.30
2022-12-23T18:06:29.454Z,8.50
2022-12-23T18:08:03.048Z,7.30
2022-12-23T18:09:34.817Z,8.30
2022-12-23T18:11:07.721Z,8.70
2022-12-23T18:12:42.679Z,7.80
2022-12-23T18:14:20.848Z,8.00
2022-12-23T18:15:52.613Z,8.20
2022-12-23T18:17:24.433Z,10.10
2022-12-23T18:18:57.110Z,8.10
2022-12-23T18:20:29.037Z,8.40
2022-12-23T18:22:01.868Z,8.60
2022-12-23T18:23:37.124Z,8.80
2022-12-23T18:25:22.490Z,10.10
2022-12-23T18:26:54.366Z,10.10
2022-12-23T18:28:28.255Z,8.10
2022-12-23T18:29:59.946Z,10.70
2022-12-23T18:31:32.455Z,10.20
2022-12-23T18:33:06.719Z,11.20
2022-12-23T18:34:38.554Z,11.60
2022-12-23T18:36:23.250Z,8.90
2022-12-23T18:37:56.404Z,11.90
2022-12-23T18:39:28.208Z,11.30
2022-12-23T18:41:00.016Z,11.90
2022-12-23T18:42:31.803Z,9.20
2022-12-23T18:44:03.667Z,9.10
2022-12-23T18:45:49.145Z,10.60
2022-12-23T18:47:24.037Z,8.30
2022-12-23T18:48:55.868Z,10.30
2022-12-23T18:50:29.144Z,16.80
2022-12-23T18:52:12.343Z,11.80
2022-12-23T18:53:45.802Z,12.80
2022-12-23T18:55:18.416Z,10.30
2022-12-23T18:56:50.247Z,10.80
2022-12-23T18:58:23.032Z,14.40
2022-12-23T18:59:54.808Z,10.70
2022-12-23T19:01:26.576Z,14.30
2022-12-23T19:02:58.539Z,10.40
2022-12-23T19:04:30.290Z,16.70
2022-12-23T19:06:07.535Z,10.50
2022-12-23T19:07:39.249Z,16.50
2022-12-23T19:09:18.047Z,16.90
2022-12-23T19:13:17.697Z,12.40
2022-12-23T19:14:50.934Z,18.80
2022-12-23T19:16:23.983Z,15.40
2022-12-23T19:17:56.000Z,12.50
2022-12-23T19:19:30.146Z,12.30
2022-12-23T19:21:09.561Z,11.00
2022-12-23T19:22:43.764Z,13.30
2022-12-23T19:24:21.190Z,17.50
2022-12-23T19:25:55.460Z,14.70
2022-12-23T19:27:31.571Z,10.70
2022-12-23T19:29:06.179Z,12.70
2022-12-23T19:30:42.164Z,12.70
2022-12-23T19:32:15.065Z,12.20
2022-12-23T19:33:50.884Z,15.00
2022-12-23T19:35:28.328Z,12.00
2022-12-23T19:37:01.723Z,13.40
2022-12-23T19:38:36.790Z,12.20
2022-12-23T19:40:12.067Z,13.80
2022-12-23T19:41:48.268Z,16.70
2022-12-23T19:43:21.174Z,14.50
2022-12-23T19:44:53.456Z,12.20
2022-12-23T19:46:25.777Z,17.20
2022-12-23T19:47:59.670Z,15.60
2022-12-23T19:49:33.735Z,12.30
2022-12-23T19:51:12.201Z,10.20
2022-12-23T19:52:46.071Z,15.40
2022-12-23T19:54:23.801Z,17.20
2022-12-23T19:56:23.050Z,13.20
2022-12-23T19:58:01.401Z,15.40
2022-12-23T19:59:35.338Z,14.30
2022-12-23T20:01:20.786Z,17.80
2022-12-23T20:02:58.989Z,9.80
2022-12-23T20:04:36.455Z,14.90
2022-12-23T20:06:27.837Z,18.30
2022-12-23T20:08:07.153Z,18.40
2022-12-23T20:09:42.575Z,15.90
2022-12-23T20:11:21.614Z,17.20
2022-12-23T20:12:59.643Z,16.40
2022-12-23T20:14:34.861Z,15.10
2022-12-23T20:16:10.983Z,20.00
2022-12-23T20:17:45.836Z,15.60
2022-12-23T20:19:20.752Z,18.60
2022-12-23T20:20:53.711Z,14.10
2022-12-23T20:22:28.265Z,15.20
2022-12-23T20:24:03.282Z,14.60
2022-12-23T20:25:35.833Z,19.10
2022-12-23T20:27:11.420Z,14.40
2022-12-23T20:28:44.730Z,20.80
2022-12-23T20:30:19.110Z,16.70
2022-12-23T20:31:52.422Z,14.90
2022-12-23T20:33:25.143Z,16.70
2022-12-23T20:34:57.017Z,12.30
2022-12-23T20:36:34.971Z,15.90
2022-12-23T20:38:07.861Z,21.40
2022-12-23T20:39:40.967Z,15.20
2022-12-23T20:41:17.537Z,17.30
2022-12-23T20:42:49.371Z,15.90
2022-12-23T20:44:34.595Z,17.60
2022-12-23T20:46:14.513Z,18.20
2022-12-23T20:47:46.964Z,22.70
2022-12-23T20:49:18.806Z,15.00
2022-12-23T20:50:51.347Z,15.10
2022-12-23T20:52:40.480Z,18.20
2022-12-23T20:54:13.255Z,18.80
2022-12-23T20:55:48.274Z,15.60
2022-12-23T20:57:20.496Z,19.40
2022-12-23T20:58:55.242Z,16.30
2022-12-23T21:00:27.164Z,12.40
2022-12-23T21:02:00.363Z,12.40
2022-12-23T21:03:32.691Z,13.30
2022-12-23T21:05:05.183Z,19.50
2022-12-23T21:06:39.280Z,12.90
2022-12-23T21:08:11.155Z,18.30
2022-12-23T21:09:43.065Z,13.80
2022-12-23T21:11:16.948Z,17.40
2022-12-23T21:12:51.128Z,11.10
2022-12-23T21:14:23.376Z,22.90
2022-12-23T21:16:06.297Z,12.90
2022-12-23T21:17:38.606Z,15.00
2022-12-23T21:19:22.069Z,16.70
2022-12-23T21:21:01.829Z,15.20
2022-12-23T21:22:36.901Z,16.40
2022-12-23T21:24:14.084Z,17.90
2022-12-23T21:25:46.207Z,15.30
2022-12-23T21:27:19.777Z,14.50
2022-12-23T21:29:04.442Z,14.80
2022-12-23T21:30:37.207Z,13.50
2022-12-23T21:32:20.101Z,13.80
2022-12-23T21:33:58.150Z,15.90
2022-12-23T21:35:30.739Z,15.80
2022-12-23T21:37:02.613Z,16.10
2022-12-23T21:38:38.825Z,11.70
2022-12-23T21:40:12.258Z,16.30
2022-12-23T21:41:44.334Z,14.40
2022-12-23T21:43:16.241Z,16.10
2022-12-23T21:44:48.077Z,14.70
2022-12-23T21:46:22.426Z,15.90
2022-12-23T21:47:54.433Z,10.70
2022-12-23T21:49:26.194Z,14.00
2022-12-23T21:51:07.498Z,15.90
2022-12-23T21:52:39.202Z,21.70
2022-12-23T21:54:12.916Z,15.80